Time;durP1;ratioP1;P1;durP2;ratioP2;P2;SDS_P1;SDS_P2;PMS_P1;PMS_P2;Temp;Humidity;BMP_temperature;BMP_pressure;BME280_temperature;BME280_humidity;BME280_pressure;Samples;Min_cycle;Max_cycle;Signal;HPM_P1;HPM_P2
2022/02/21 00:05:37;;;;;;;4.47;1.48;;;18.90;51.30;;;;;;21319207;27;20054;-59
2022/02/21 00:15:39;;;;;;;3.63;1.45;;;18.70;51.60;;;;;;21320724;27;20054;-58
2022/02/21 00:25:41;;;;;;;2.55;1.23;;;18.70;51.70;;;;;;21318845;27;20049;-59
2022/02/21 00:35:43;;;;;;;4.57;1.30;;;;;;;;;;21323112;27;20400;-59
2022/02/21 00:45:46;;;;;;;3.40;1.55;;;18.60;52.10;;;;;;21298938;27;20417;-57
2022/02/21 00:55:47;;;;;;;3.85;1.20;;;18.50;52.50;;;;;;21281212;27;20055;-59
2022/02/21 01:05:49;;;;;;;4.85;1.55;;;18.50;52.70;;;;;;21286922;27;20051;-59
2022/02/21 01:15:53;;;;;;;2.97;1.30;;;18.40;52.70;;;;;;21318716;27;20054;-60
2022/02/21 01:25:55;;;;;;;1.73;1.23;;;18.40;52.80;;;;;;21329497;27;20389;-59
2022/02/21 01:35:57;;;;;;;2.90;1.15;;;18.40;53.10;;;;;;21321234;27;20493;-59
2022/02/21 01:46:00;;;;;;;1.95;1.30;;;18.30;53.20;;;;;;21274697;27;20107;-60
2022/02/21 01:56:03;;;;;;;2.42;1.30;;;18.20;53.50;;;;;;21279356;27;20051;-59
2022/02/21 02:06:06;;;;;;;1.85;0.95;;;18.20;53.70;;;;;;21281385;27;20050;-56
2022/02/21 02:16:08;;;;;;;1.98;1.27;;;18.20;53.90;;;;;;21324767;27;20051;-59
2022/02/21 02:26:12;;;;;;;1.58;1.00;;;18.20;54.10;;;;;;21330653;27;20073;-59
2022/02/21 02:36:16;;;;;;;1.85;1.08;;;18.10;54.20;;;;;;21323521;27;20066;-58
2022/02/21 02:46:38;;;;;;;2.05;0.98;;;18.00;54.30;;;;;;21316784;27;20052;-51
2022/02/21 02:56:47;;;;;;;2.05;1.00;;;18.00;54.50;;;;;;21310172;27;20463;-59
2022/02/21 03:06:58;;;;;;;2.42;1.02;;;18.70;54.70;;;;;;21328676;27;20138;-59
2022/02/21 03:17:03;;;;;;;1.50;1.00;;;20.20;53.40;;;;;;21308213;27;20783;-60
2022/02/21 03:27:06;;;;;;;1.75;1.17;;;21.70;51.90;;;;;;21326832;27;20072;-60
2022/02/21 03:37:09;;;;;;;1.17;0.80;;;22.70;50.10;;;;;;21298164;27;20050;-60
2022/02/21 03:47:14;;;;;;;2.10;1.00;;;23.10;48.90;;;;;;21325057;27;20481;-60
2022/02/21 03:57:17;;;;;;;1.08;0.80;;;22.70;48.80;;;;;;21282263;27;20066;-60
2022/02/21 04:07:20;;;;;;;1.00;0.65;;;22.20;48.60;;;;;;21281310;27;20088;-61
2022/02/21 04:17:23;;;;;;;1.65;0.90;;;21.50;49.00;;;;;;21293971;27;20865;-62
2022/02/21 04:27:25;;;;;;;2.03;0.82;;;20.90;49.40;;;;;;21316420;27;20070;-58
2022/02/21 04:37:29;;;;;;;2.78;1.02;;;20.40;50.10;;;;;;21324305;27;20089;-59
2022/02/21 04:47:34;;;;;;;1.17;0.85;;;19.90;50.50;;;;;;21319578;27;20053;-59
2022/02/21 04:57:36;;;;;;;2.45;0.80;;;19.50;51.00;;;;;;21321015;27;20054;-59
2022/02/21 05:07:40;;;;;;;1.17;0.82;;;19.20;51.60;;;;;;21335564;27;20054;-58
2022/02/21 05:17:43;;;;;;;1.23;0.90;;;19.00;52.10;;;;;;21308701;27;20061;-58
2022/02/21 05:27:46;;;;;;;2.05;1.20;;;18.80;52.40;;;;;;21307343;27;20078;-58
2022/02/21 05:37:50;;;;;;;7.47;2.13;;;18.60;52.60;;;;;;21330577;27;20127;-56
2022/02/21 05:47:52;;;;;;;7.35;2.42;;;18.50;53.50;;;;;;21264703;27;20393;-59
2022/02/21 05:57:57;;;;;;;6.82;2.17;;;;;;;;;;21281760;27;20051;-59
2022/02/21 06:08:00;;;;;;;6.68;2.20;;;18.30;54.00;;;;;;21265010;27;20134;-59
2022/02/21 06:18:03;;;;;;;4.97;2.00;;;18.20;54.30;;;;;;21229329;27;20437;-55
2022/02/21 06:28:05;;;;;;;8.07;2.55;;;18.10;54.60;;;;;;21314857;27;20054;-56
2022/02/21 06:38:07;;;;;;;4.45;1.60;;;18.10;55.30;;;;;;21297156;27;20101;-59
2022/02/21 06:48:09;;;;;;;5.10;1.83;;;19.40;54.40;;;;;;21227701;27;20092;-60
2022/02/21 06:58:11;;;;;;;5.18;1.65;;;21.00;53.10;;;;;;21281796;27;20054;-60
2022/02/21 07:08:14;;;;;;;4.53;1.50;;;22.30;51.50;;;;;;21327257;27;20054;-59
2022/02/21 07:18:16;;;;;;;4.32;1.50;;;23.00;50.00;;;;;;21309091;27;20069;-54
2022/02/21 07:28:19;;;;;;;3.45;1.77;;;22.60;49.90;;;;;;21306060;27;20043;-59
2022/02/21 07:38:21;;;;;;;3.67;1.80;;;22.20;49.70;;;;;;21318973;27;20207;-58
2022/02/21 07:48:22;;;;;;;2.53;1.58;;;21.70;49.50;;;;;;21324577;27;20049;-59
2022/02/21 07:58:24;;;;;;;7.45;1.58;;;21.10;50.00;;;;;;21319253;27;20054;-61
2022/02/21 08:08:26;;;;;;;3.33;1.60;;;20.50;50.70;;;;;;20971233;27;20052;-59
2022/02/21 08:18:28;;;;;;;8.20;1.60;;;20.00;51.30;;;;;;20891345;27;20056;-53
2022/02/21 08:28:31;;;;;;;9.20;1.80;;;19.60;52.10;;;;;;20882602;28;20045;-57
2022/02/21 08:38:33;;;;;;;3.53;1.52;;;19.30;52.50;;;;;;20890265;28;20056;-54
2022/02/21 08:48:37;;;;;;;4.40;1.90;;;19.10;53.10;;;;;;20879009;28;20456;-55
2022/02/21 08:58:38;;;;;;;7.25;2.97;;;18.90;53.60;;;;;;20950136;27;20190;-56
2022/02/21 09:08:40;;;;;;;7.65;3.17;;;18.70;53.80;;;;;;20937858;27;20056;-54
2022/02/21 09:18:42;;;;;;;7.32;2.85;;;18.70;54.00;;;;;;20980170;27;20490;-56
2022/02/21 09:28:44;;;;;;;9.80;2.67;;;18.60;54.10;;;;;;20968218;27;20049;-55
2022/02/21 09:38:46;;;;;;;12.13;2.50;;;18.60;54.30;;;;;;20897922;28;20560;-55
2022/02/21 09:48:51;;;;;;;9.50;2.47;;;18.60;54.60;;;;;;20969498;27;20053;-52
2022/02/21 09:58:55;;;;;;;5.88;1.90;;;18.60;54.70;;;;;;20898279;27;20053;-57
2022/02/21 10:09:12;;;;;;;5.05;2.03;;;18.60;54.90;;;;;;20887925;28;20102;-55
2022/02/21 10:19:30;;;;;;;8.57;3.13;;;18.70;55.00;;;;;;20811931;28;20071;-54
2022/02/21 10:30:00;;;;;;;4.43;2.10;;;18.70;55.00;;;;;;20823103;28;20535;-55
2022/02/21 10:40:07;;;;;;;4.15;1.80;;;18.70;54.90;;;;;;20895018;28;20064;-56
2022/02/21 10:50:10;;;;;;;5.05;2.00;;;18.80;55.00;;;;;;20937611;27;20048;-56
2022/02/21 11:00:14;;;;;;;5.32;2.22;;;18.90;55.10;;;;;;20905842;27;20051;-55
2022/02/21 11:10:16;;;;;;;5.75;2.08;;;18.90;55.10;;;;;;21223093;27;20154;-56
2022/02/21 11:20:19;;;;;;;4.93;1.80;;;19.00;55.20;;;;;;21241471;27;20474;-56
2022/02/21 11:30:26;;;;;;;4.53;1.65;;;19.00;55.20;;;;;;21238947;27;20057;-55
2022/02/21 11:40:27;;;;;;;5.03;1.52;;;19.10;55.10;;;;;;21323571;27;20074;-53
2022/02/21 11:50:31;;;;;;;4.25;1.58;;;19.20;55.00;;;;;;21275425;27;20090;-56
2022/02/21 12:00:37;;;;;;;4.20;1.70;;;19.30;55.00;;;;;;21237763;27;20047;-56
2022/02/21 12:10:39;;;;;;;4.35;1.48;;;19.40;54.90;;;;;;21238050;27;20043;-55
2022/02/21 12:20:42;;;;;;;4.38;1.65;;;19.40;54.70;;;;;;21237796;27;20379;-63
2022/02/21 12:30:50;;;;;;;3.22;1.40;;;19.50;54.60;;;;;;21306400;27;20113;-59
2022/02/21 12:41:05;;;;;;;3.40;1.30;;;19.60;54.40;;;;;;21269129;27;20455;-57
2022/02/21 12:51:07;;;;;;;5.05;1.70;;;19.70;54.20;;;;;;21237091;28;20412;-56
2022/02/21 13:01:18;;;;;;;4.38;1.45;;;19.70;54.30;;;;;;21178898;27;20140;-56
2022/02/21 13:11:28;;;;;;;2.78;1.35;;;19.80;54.10;;;;;;20820139;28;20053;-57
2022/02/21 13:21:41;;;;;;;2.83;1.30;;;19.90;54.10;;;;;;20819667;28;20184;-54
2022/02/21 13:31:44;;;;;;;3.40;1.30;;;20.00;54.20;;;;;;20889301;28;20149;-54
2022/02/21 13:41:47;;;;;;;2.47;1.15;;;20.00;54.10;;;;;;20922763;27;20137;-57
2022/02/21 13:52:04;;;;;;;4.35;1.52;;;20.10;53.90;;;;;;20817008;28;20102;-59
2022/02/21 14:02:06;;;;;;;2.25;1.20;;;20.20;53.80;;;;;;21062984;27;20490;-56
2022/02/21 14:12:12;;;;;;;2.55;1.10;;;20.20;53.60;;;;;;21324742;27;20057;-56
2022/02/21 14:22:15;;;;;;;2.40;1.08;;;20.20;53.60;;;;;;21277227;27;20409;-56
2022/02/21 14:32:16;;;;;;;1.65;0.90;;;20.20;53.60;;;;;;21267094;27;20047;-56
2022/02/21 14:42:19;;;;;;;2.70;1.23;;;20.20;53.60;;;;;;21299589;27;20408;-54
2022/02/21 14:52:21;;;;;;;3.00;1.15;;;20.30;53.20;;;;;;21300557;27;20058;-53
2022/02/21 15:02:22;;;;;;;2.42;1.17;;;20.40;52.90;;;;;;21324842;27;20546;-48
2022/02/21 15:12:26;;;;;;;3.25;1.33;;;20.60;52.30;;;;;;21319083;27;20050;-53
2022/02/21 15:22:28;;;;;;;2.55;1.40;;;20.90;51.10;;;;;;21343466;27;20050;-50
2022/02/21 15:32:31;;;;;;;3.33;1.13;;;21.30;49.80;;;;;;21316281;27;20083;-49
2022/02/21 15:42:33;;;;;;;2.67;0.90;;;21.50;48.90;;;;;;21321728;27;20474;-50
2022/02/21 15:52:36;;;;;;;2.15;0.77;;;21.70;48.10;;;;;;21301588;27;20110;-45
2022/02/21 16:02:38;;;;;;;2.60;0.95;;;21.80;48.10;;;;;;21278508;27;20145;-50
2022/02/21 16:12:40;;;;;;;2.45;0.90;;;22.00;48.00;;;;;;21329907;27;20115;-50
2022/02/21 16:22:41;;;;;;;1.73;1.00;;;22.10;47.90;;;;;;21316266;27;20130;-50
2022/02/21 16:32:44;;;;;;;2.08;0.93;;;22.10;48.00;;;;;;21282779;27;20066;-50
2022/02/21 16:42:45;;;;;;;2.63;0.90;;;21.90;48.30;;;;;;21331018;27;20088;-49
2022/02/21 16:52:48;;;;;;;2.58;0.70;;;21.70;48.70;;;;;;21323433;27;20074;-49
2022/02/21 17:02:52;;;;;;;1.75;0.80;;;21.50;49.10;;;;;;21319843;27;20074;-50
2022/02/21 17:12:54;;;;;;;1.90;0.80;;;21.30;49.30;;;;;;21326472;27;20095;-49
2022/02/21 17:22:56;;;;;;;1.73;0.73;;;21.10;49.10;;;;;;21342724;27;20118;-49
2022/02/21 17:32:58;;;;;;;4.40;0.80;;;20.90;49.40;;;;;;21313291;27;20042;-50
2022/02/21 17:43:01;;;;;;;1.42;0.70;;;20.60;50.00;;;;;;21311232;27;20477;-50
2022/02/21 17:53:02;;;;;;;2.17;1.00;;;20.40;50.40;;;;;;21238674;27;20055;-50
2022/02/21 18:03:04;;;;;;;0.95;0.50;;;20.20;50.90;;;;;;21274831;27;20137;-50
2022/02/21 18:13:08;;;;;;;3.33;0.82;;;20.00;51.30;;;;;;21312076;27;20493;-50
2022/02/21 18:23:10;;;;;;;1.50;0.52;;;19.90;51.80;;;;;;21314788;27;20042;-49
2022/02/21 18:33:12;;;;;;;2.67;0.63;;;19.90;52.20;;;;;;21304098;27;20091;-51
2022/02/21 18:43:15;;;;;;;4.28;0.70;;;20.30;52.20;;;;;;21275459;27;20035;-48
2022/02/21 18:53:19;;;;;;;3.90;1.00;;;21.60;51.00;;;;;;21333629;27;20059;-51
2022/02/21 19:03:22;;;;;;;5.65;0.90;;;;;;;;;;21105771;27;20082;-54
2022/02/21 19:13:23;;;;;;;3.88;0.98;;;23.90;48.70;;;;;;20940184;27;20056;-48
2022/02/21 19:23:25;;;;;;;5.78;1.05;;;24.50;47.80;;;;;;20863787;27;20507;-48
2022/02/21 19:33:27;;;;;;;9.85;2.85;;;24.90;47.10;;;;;;20902762;27;20516;-49
2022/02/21 19:43:29;;;;;;;5.22;1.05;;;25.30;46.60;;;;;;20877242;28;20056;-48
2022/02/21 19:53:31;;;;;;;4.65;0.90;;;25.30;46.40;;;;;;20912462;27;20055;-48
2022/02/21 20:03:33;;;;;;;3.63;0.63;;;24.90;46.60;;;;;;21096498;27;20450;-50
2022/02/21 20:13:35;;;;;;;6.97;0.82;;;24.60;46.90;;;;;;21255680;27;20081;-48
2022/02/21 20:23:38;;;;;;;4.55;0.95;;;24.20;47.10;;;;;;21271604;27;20482;-49
2022/02/21 20:33:40;;;;;;;3.67;0.95;;;23.70;47.40;;;;;;21310773;27;20051;-53
2022/02/21 20:43:41;;;;;;;5.75;1.33;;;23.20;47.80;;;;;;21329584;27;20042;-53
2022/02/21 20:53:43;;;;;;;3.17;0.90;;;22.80;48.20;;;;;;21319027;27;20047;-51
2022/02/21 21:03:45;;;;;;;3.85;1.13;;;22.50;48.60;;;;;;21319961;27;20054;-51
2022/02/21 21:13:47;;;;;;;5.43;1.27;;;22.20;49.40;;;;;;21316824;27;20438;-50
2022/02/21 21:23:49;;;;;;;5.30;0.98;;;21.90;50.10;;;;;;21334806;27;20180;-52
2022/02/21 21:33:51;;;;;;;3.53;1.10;;;21.50;50.70;;;;;;21330945;27;20442;-51
2022/02/21 21:43:52;;;;;;;4.55;1.08;;;21.30;51.30;;;;;;21318195;27;20043;-56
2022/02/21 21:53:53;;;;;;;3.55;1.10;;;21.10;51.80;;;;;;21330264;27;20068;-51
2022/02/21 22:03:56;;;;;;;3.55;1.02;;;20.90;52.10;;;;;;21313877;27;20046;-53
2022/02/21 22:13:57;;;;;;;6.03;1.00;;;20.70;52.50;;;;;;21312253;27;20046;-52
2022/02/21 22:23:59;;;;;;;8.73;0.75;;;20.60;52.90;;;;;;21332319;27;20477;-52
2022/02/21 22:34:02;;;;;;;4.78;0.90;;;20.40;53.10;;;;;;21290152;27;20055;-50
2022/02/21 22:44:03;;;;;;;5.38;0.95;;;20.30;53.40;;;;;;21342865;27;20039;-53
2022/02/21 22:54:05;;;;;;;2.58;0.60;;;20.20;53.70;;;;;;21288915;27;20076;-52
2022/02/21 23:14:26;;;;;;;1.77;0.90;;;20.00;54.10;;;;;;21295881;27;20043;-50
2022/02/21 23:24:28;;;;;;;1.42;0.65;;;19.80;54.30;;;;;;21271142;27;20115;-52
2022/02/21 23:34:30;;;;;;;2.45;0.90;;;19.70;54.50;;;;;;21306351;27;20050;-52
2022/02/21 23:44:35;;;;;;;1.92;0.70;;;19.80;55.20;;;;;;21270741;27;20049;-49
2022/02/21 23:54:37;;;;;;;1.50;0.70;;;21.10;54.20;;;;;;21281047;27;20047;-49
